Time;durP1;ratioP1;P1;durP2;ratioP2;P2;SDS_P1;SDS_P2;PMS_P1;PMS_P2;Temp;Humidity;BMP_temperature;BMP_pressure;BME280_temperature;BME280_humidity;BME280_pressure;Samples;Min_cycle;Max_cycle;Signal;HPM_P1;HPM_P2
2021/11/27 00:00:42;;;;;;;3.90;3.40;;;4.80;99.90;;;;;;4995106;28;20932;-61
2021/11/27 00:03:09;;;;;;;3.67;3.33;;;4.80;99.90;;;;;;4995144;28;20408;-62
2021/11/27 00:05:38;;;;;;;4.73;3.60;;;4.80;99.90;;;;;;4994577;28;20518;-62
2021/11/27 00:08:08;;;;;;;4.33;3.80;;;4.70;99.90;;;;;;4994988;28;20925;-61
2021/11/27 00:10:35;;;;;;;5.20;4.20;;;4.80;99.90;;;;;;4995186;28;20428;-61
2021/11/27 00:13:02;;;;;;;4.60;4.03;;;4.70;99.90;;;;;;4994811;28;20412;-61
2021/11/27 00:15:29;;;;;;;4.53;3.67;;;4.70;99.90;;;;;;4994822;28;20404;-60
2021/11/27 00:17:57;;;;;;;5.00;3.90;;;4.80;99.90;;;;;;4995844;28;20813;-60
2021/11/27 00:20:30;;;;;;;4.13;3.73;;;4.70;99.90;;;;;;4994131;28;20810;-61
2021/11/27 00:22:55;;;;;;;4.53;4.00;;;4.80;99.90;;;;;;4994923;28;20396;-60
2021/11/27 00:25:21;;;;;;;4.00;3.60;;;4.70;99.90;;;;;;4994763;28;20400;-61
2021/11/27 00:27:48;;;;;;;4.10;3.70;;;4.80;99.90;;;;;;4995196;28;20176;-59
2021/11/27 00:30:19;;;;;;;3.97;3.53;;;4.80;99.90;;;;;;4994602;28;20419;-61
2021/11/27 00:32:44;;;;;;;4.30;3.80;;;4.60;99.90;;;;;;4994662;28;20388;-60
2021/11/27 00:35:11;;;;;;;4.27;3.87;;;4.60;99.90;;;;;;4994810;28;20416;-61
2021/11/27 00:37:37;;;;;;;3.70;3.17;;;4.60;99.90;;;;;;4994356;28;20172;-61
2021/11/27 00:40:09;;;;;;;4.63;3.87;;;4.70;99.90;;;;;;4994332;28;20459;-60
2021/11/27 00:42:35;;;;;;;4.77;4.00;;;4.70;99.90;;;;;;4994226;28;20408;-61
2021/11/27 00:45:01;;;;;;;4.93;3.73;;;4.60;99.90;;;;;;4994599;28;20408;-61
2021/11/27 00:47:27;;;;;;;4.63;3.63;;;4.70;99.90;;;;;;4994592;28;20648;-61
2021/11/27 00:49:54;;;;;;;4.33;3.60;;;4.80;99.90;;;;;;4993958;28;20463;-58
2021/11/27 00:52:21;;;;;;;5.10;3.80;;;4.60;99.90;;;;;;4994137;28;20183;-61
2021/11/27 00:54:47;;;;;;;3.80;3.40;;;4.60;99.90;;;;;;4994369;28;20491;-59
2021/11/27 00:57:13;;;;;;;4.53;4.13;;;4.60;99.90;;;;;;4994152;28;20451;-59
2021/11/27 00:59:39;;;;;;;5.13;4.60;;;4.60;99.90;;;;;;4993444;28;20232;-61
2021/11/27 01:02:05;;;;;;;6.13;4.00;;;4.70;99.90;;;;;;4993726;28;20404;-59
2021/11/27 01:04:31;;;;;;;4.30;3.83;;;4.80;99.90;;;;;;4994148;28;20177;-61
2021/11/27 01:06:57;;;;;;;5.47;4.23;;;4.70;99.90;;;;;;4993416;28;20906;-60
2021/11/27 01:09:22;;;;;;;5.77;4.50;;;4.70;99.90;;;;;;4993802;28;20570;-60
2021/11/27 01:11:53;;;;;;;4.83;4.33;;;4.80;99.90;;;;;;4994264;28;20418;-61
2021/11/27 01:14:22;;;;;;;5.37;4.87;;;4.60;99.90;;;;;;4994120;28;20169;-59
2021/11/27 01:16:52;;;;;;;4.50;4.10;;;4.70;99.90;;;;;;4993418;28;20507;-60
2021/11/27 01:19:19;;;;;;;4.93;4.43;;;4.70;99.90;;;;;;4993306;28;20928;-60
2021/11/27 01:21:50;;;;;;;6.60;4.70;;;4.70;99.90;;;;;;4993782;28;20451;-60
2021/11/27 01:24:17;;;;;;;4.57;4.13;;;4.70;99.90;;;;;;4994149;28;20435;-59
2021/11/27 01:26:44;;;;;;;6.20;4.40;;;4.70;99.90;;;;;;4994212;28;20482;-62
2021/11/27 01:29:10;;;;;;;5.43;4.60;;;4.70;99.90;;;;;;4993986;28;20423;-61
2021/11/27 01:31:36;;;;;;;4.57;3.97;;;4.80;99.90;;;;;;4993851;28;20416;-61
2021/11/27 01:34:04;;;;;;;5.93;4.77;;;4.90;99.90;;;;;;4993903;28;20407;-61
2021/11/27 01:36:29;;;;;;;4.47;4.07;;;4.90;99.90;;;;;;4992147;28;20431;-60
2021/11/27 01:38:55;;;;;;;4.20;3.63;;;4.80;99.90;;;;;;4974582;28;20836;-61
2021/11/27 01:41:21;;;;;;;4.90;4.40;;;4.70;99.90;;;;;;4974358;28;20197;-61
2021/11/27 01:43:47;;;;;;;5.37;4.57;;;4.70;99.90;;;;;;4974653;28;20177;-59
2021/11/27 01:46:13;;;;;;;4.73;4.17;;;4.60;99.90;;;;;;4974348;28;20416;-61
2021/11/27 01:48:39;;;;;;;6.87;5.60;;;4.70;99.90;;;;;;4974294;28;20451;-61
2021/11/27 01:51:10;;;;;;;4.80;4.20;;;4.60;99.90;;;;;;5006588;23;20483;-61
2021/11/27 01:53:40;;;;;;;5.00;4.40;;;4.80;99.90;;;;;;4988075;28;20216;-61
2021/11/27 01:56:15;;;;;;;6.40;4.77;;;4.60;99.90;;;;;;4994029;28;20869;-61
2021/11/27 01:58:41;;;;;;;5.93;4.47;;;4.70;99.90;;;;;;4993801;28;20518;-61
2021/11/27 02:01:11;;;;;;;4.80;4.33;;;4.70;99.90;;;;;;4993328;28;20474;-61
2021/11/27 02:03:37;;;;;;;5.67;5.07;;;4.70;99.90;;;;;;4992227;28;20408;-62
2021/11/27 02:06:05;;;;;;;6.37;5.07;;;4.60;99.90;;;;;;4984146;28;20432;-60
2021/11/27 02:08:31;;;;;;;4.93;4.43;;;4.50;99.90;;;;;;4973937;28;20400;-62
2021/11/27 02:10:57;;;;;;;6.10;4.80;;;4.60;99.90;;;;;;4973815;28;20527;-62
2021/11/27 02:13:23;;;;;;;4.97;4.17;;;4.60;99.90;;;;;;4976834;28;20516;-60
2021/11/27 02:15:49;;;;;;;4.70;4.30;;;4.50;99.90;;;;;;4977975;28;20487;-62
2021/11/27 02:18:15;;;;;;;5.37;4.73;;;4.60;99.90;;;;;;4977621;28;20204;-62
2021/11/27 02:20:52;;;;;;;5.97;4.53;;;4.60;99.90;;;;;;4985948;28;20580;-62
2021/11/27 02:23:18;;;;;;;4.73;4.27;;;4.60;99.90;;;;;;4997230;28;20157;-60
2021/11/27 02:25:44;;;;;;;4.70;3.97;;;4.60;99.90;;;;;;4997202;28;20782;-62
2021/11/27 02:28:09;;;;;;;5.33;4.70;;;4.60;99.90;;;;;;4997131;28;20168;-62
2021/11/27 02:30:35;;;;;;;5.17;4.67;;;4.80;99.90;;;;;;4997033;28;20207;-62
2021/11/27 02:33:01;;;;;;;5.10;4.60;;;4.80;99.90;;;;;;4996771;28;20273;-62
2021/11/27 02:35:27;;;;;;;4.70;4.03;;;4.80;99.90;;;;;;4996648;28;20251;-61
2021/11/27 02:37:52;;;;;;;4.87;4.20;;;4.80;99.90;;;;;;4996637;28;20412;-62
2021/11/27 02:40:18;;;;;;;5.97;4.40;;;4.80;99.90;;;;;;4996835;28;20615;-62
2021/11/27 02:42:43;;;;;;;4.70;4.03;;;4.80;99.90;;;;;;4997105;28;20282;-60
2021/11/27 02:45:11;;;;;;;4.30;3.70;;;4.70;99.90;;;;;;4996475;28;20176;-62
2021/11/27 02:47:36;;;;;;;5.03;4.63;;;4.80;99.90;;;;;;4996865;28;20196;-59
2021/11/27 02:50:04;;;;;;;5.10;4.20;;;4.80;99.90;;;;;;4994736;28;20925;-62
2021/11/27 02:52:30;;;;;;;4.50;3.77;;;4.70;99.90;;;;;;4996295;28;20173;-62
2021/11/27 02:54:57;;;;;;;4.30;3.90;;;4.80;99.90;;;;;;4996394;28;20404;-62
2021/11/27 02:57:23;;;;;;;5.93;4.80;;;4.90;99.90;;;;;;4996519;28;20499;-62
2021/11/27 02:59:49;;;;;;;5.70;5.07;;;4.80;99.90;;;;;;4996331;28;21044;-62
2021/11/27 03:02:15;;;;;;;4.30;3.87;;;4.90;99.90;;;;;;4996243;28;20408;-59
2021/11/27 03:04:41;;;;;;;5.13;4.47;;;4.90;99.90;;;;;;4996458;28;20244;-62
2021/11/27 03:07:07;;;;;;;4.60;4.20;;;5.00;99.90;;;;;;4996002;28;20396;-62
2021/11/27 03:09:34;;;;;;;5.00;4.27;;;5.00;99.90;;;;;;4996451;28;20165;-62
2021/11/27 03:12:02;;;;;;;5.17;4.67;;;5.10;99.90;;;;;;4995910;28;20403;-62
2021/11/27 03:14:28;;;;;;;5.00;3.97;;;5.10;99.90;;;;;;4997373;28;20400;-60
2021/11/27 03:16:55;;;;;;;3.83;3.50;;;5.10;99.90;;;;;;4994650;28;20436;-61
2021/11/27 03:19:21;;;;;;;6.03;4.60;;;5.10;99.90;;;;;;4977737;28;20409;-61
2021/11/27 03:21:47;;;;;;;5.93;4.63;;;5.10;99.90;;;;;;4994668;28;20451;-62
2021/11/27 03:24:13;;;;;;;4.47;4.07;;;5.10;99.90;;;;;;4994745;28;20416;-62
2021/11/27 03:26:39;;;;;;;5.97;4.97;;;5.10;99.90;;;;;;4995959;28;20180;-62
2021/11/27 03:29:05;;;;;;;4.50;3.70;;;5.00;99.90;;;;;;4995975;28;20750;-62
2021/11/27 03:31:31;;;;;;;7.07;3.63;;;5.00;99.90;;;;;;4995734;28;20431;-62
2021/11/27 03:33:56;;;;;;;4.07;3.70;;;5.10;99.90;;;;;;4995480;28;20598;-62
2021/11/27 03:36:22;;;;;;;5.47;4.23;;;5.00;99.90;;;;;;4995215;28;20658;-62
2021/11/27 03:38:48;;;;;;;3.83;3.43;;;5.10;99.90;;;;;;4994306;28;20227;-62
2021/11/27 03:41:15;;;;;;;4.50;4.00;;;5.20;99.90;;;;;;4995710;28;20204;-62
2021/11/27 03:43:42;;;;;;;5.83;4.60;;;5.10;99.90;;;;;;4995543;28;20407;-62
2021/11/27 03:46:09;;;;;;;4.23;3.57;;;5.10;99.90;;;;;;4995387;28;20435;-62
2021/11/27 03:48:40;;;;;;;5.30;3.97;;;5.10;99.90;;;;;;4995349;28;20776;-62
2021/11/27 03:51:14;;;;;;;4.90;4.40;;;4.90;99.90;;;;;;4994690;28;21043;-62
2021/11/27 03:53:41;;;;;;;4.90;4.23;;;4.80;99.90;;;;;;4995582;28;20393;-62
2021/11/27 03:56:10;;;;;;;5.30;4.10;;;4.80;99.90;;;;;;4995264;28;20765;-62
2021/11/27 03:58:37;;;;;;;4.93;3.90;;;4.70;99.90;;;;;;4995115;28;20430;-62
2021/11/27 04:01:12;;;;;;;3.83;3.30;;;4.70;99.90;;;;;;4995161;28;20816;-62
2021/11/27 04:03:40;;;;;;;5.60;4.13;;;4.50;99.90;;;;;;4995133;28;20404;-62
2021/11/27 04:06:07;;;;;;;5.10;3.80;;;4.50;99.90;;;;;;4994690;28;20401;-58
2021/11/27 04:08:33;;;;;;;5.43;4.40;;;4.50;99.90;;;;;;4995478;28;20408;-58
2021/11/27 04:10:59;;;;;;;5.13;4.33;;;4.80;99.90;;;;;;4995024;28;20428;-61
2021/11/27 04:13:24;;;;;;;4.57;3.37;;;4.60;99.90;;;;;;4996703;28;20180;-62
2021/11/27 04:15:50;;;;;;;4.27;3.60;;;4.70;99.90;;;;;;4996080;28;20412;-58
2021/11/27 04:18:17;;;;;;;5.50;4.10;;;4.60;99.90;;;;;;4995370;28;20576;-62
2021/11/27 04:20:43;;;;;;;2.93;2.63;;;4.70;99.90;;;;;;4995223;28;20197;-62
2021/11/27 04:23:10;;;;;;;3.87;3.47;;;4.60;99.90;;;;;;4995264;28;20412;-62
2021/11/27 04:25:36;;;;;;;3.40;3.10;;;4.70;99.90;;;;;;4994829;28;20919;-62
2021/11/27 04:28:02;;;;;;;3.77;3.00;;;4.60;99.90;;;;;;4994834;28;20404;-62
2021/11/27 04:30:30;;;;;;;3.53;3.23;;;4.70;99.90;;;;;;4995000;28;20460;-61
2021/11/27 04:32:56;;;;;;;3.73;2.87;;;4.70;99.90;;;;;;4995172;28;20408;-62
2021/11/27 04:35:24;;;;;;;3.50;3.00;;;4.80;99.90;;;;;;4994104;28;20751;-62
2021/11/27 04:37:49;;;;;;;3.47;2.40;;;4.80;99.90;;;;;;4994522;28;20580;-62
2021/11/27 04:40:17;;;;;;;2.77;2.30;;;4.80;99.90;;;;;;4994307;28;20452;-62
2021/11/27 04:42:42;;;;;;;2.20;1.97;;;4.80;99.90;;;;;;4994484;28;20169;-62
2021/11/27 04:45:09;;;;;;;2.27;1.97;;;4.80;99.90;;;;;;4994430;28;20411;-62
2021/11/27 04:47:35;;;;;;;2.30;2.00;;;4.90;99.90;;;;;;4994599;28;20255;-62
2021/11/27 04:50:01;;;;;;;2.50;2.30;;;5.10;99.90;;;;;;4994066;28;20463;-62
2021/11/27 04:52:27;;;;;;;1.80;1.70;;;5.00;99.90;;;;;;4993894;28;20396;-62
2021/11/27 04:54:53;;;;;;;1.73;1.63;;;5.20;99.90;;;;;;4994454;28;20408;-59
2021/11/27 04:57:18;;;;;;;2.87;1.47;;;5.10;99.90;;;;;;4990394;28;20192;-61
2021/11/27 04:59:45;;;;;;;1.90;1.70;;;5.20;99.90;;;;;;4985826;28;20243;-62
2021/11/27 05:02:11;;;;;;;1.53;1.43;;;5.20;99.90;;;;;;4994460;28;20573;-62
2021/11/27 05:04:37;;;;;;;2.27;1.70;;;5.10;99.90;;;;;;4994290;28;20415;-61
2021/11/27 05:07:03;;;;;;;2.13;1.53;;;4.90;99.90;;;;;;4993766;28;20172;-61
2021/11/27 05:09:29;;;;;;;2.03;1.57;;;5.00;99.90;;;;;;4994193;28;20400;-59
2021/11/27 05:11:55;;;;;;;1.57;1.33;;;5.10;99.90;;;;;;4994724;28;20458;-62
2021/11/27 05:14:21;;;;;;;3.00;1.70;;;5.20;99.90;;;;;;4994454;28;20404;-61
2021/11/27 05:16:47;;;;;;;1.90;1.43;;;5.10;99.90;;;;;;4994703;28;20403;-62
2021/11/27 05:19:12;;;;;;;2.20;1.70;;;5.00;99.90;;;;;;4994337;28;20626;-62
2021/11/27 05:21:38;;;;;;;2.10;1.70;;;5.10;99.90;;;;;;4993887;28;20470;-60
2021/11/27 05:24:04;;;;;;;1.67;1.40;;;5.20;99.90;;;;;;4994765;28;20533;-61
2021/11/27 05:26:30;;;;;;;3.00;1.57;;;5.20;99.90;;;;;;4977852;28;20173;-62
2021/11/27 05:28:55;;;;;;;2.00;1.47;;;5.10;99.90;;;;;;4975265;28;20873;-62
2021/11/27 05:31:22;;;;;;;1.97;1.57;;;5.00;99.90;;;;;;4974645;28;20189;-62
2021/11/27 05:34:10;;;;;;;2.33;1.40;;;5.10;99.90;;;;;;4973648;28;20236;-62
2021/11/27 05:36:36;;;;;;;1.70;1.20;;;5.20;99.90;;;;;;4973752;28;20432;-62
2021/11/27 05:39:03;;;;;;;1.93;1.20;;;5.20;99.90;;;;;;4974664;28;20421;-62
2021/11/27 05:41:29;;;;;;;1.87;1.43;;;5.10;99.90;;;;;;4974267;28;20969;-62
2021/11/27 05:43:56;;;;;;;1.50;1.40;;;5.30;99.90;;;;;;4974385;28;20445;-62
2021/11/27 05:46:22;;;;;;;1.53;1.30;;;5.30;99.90;;;;;;4975559;28;20177;-62
2021/11/27 05:48:49;;;;;;;1.70;1.40;;;5.20;99.90;;;;;;4978277;28;20432;-62
2021/11/27 05:51:15;;;;;;;1.60;1.50;;;5.30;99.90;;;;;;4991266;28;20220;-60
2021/11/27 05:53:41;;;;;;;1.40;1.30;;;5.10;99.90;;;;;;4997534;28;20467;-62
2021/11/27 05:56:07;;;;;;;2.30;1.70;;;5.00;99.90;;;;;;4997548;28;20569;-62
2021/11/27 05:58:32;;;;;;;1.73;1.50;;;4.90;99.90;;;;;;4997904;28;20168;-62
2021/11/27 06:01:05;;;;;;;1.90;1.40;;;5.00;99.90;;;;;;4997173;28;20809;-60
2021/11/27 06:03:32;;;;;;;1.90;1.63;;;5.00;99.90;;;;;;4997814;28;20152;-62
2021/11/27 06:05:59;;;;;;;1.47;1.37;;;5.10;99.90;;;;;;4997977;28;20478;-62
2021/11/27 06:08:24;;;;;;;1.37;1.17;;;5.30;99.90;;;;;;4999250;28;20419;-63
2021/11/27 06:10:50;;;;;;;1.67;1.50;;;5.20;99.90;;;;;;4998511;28;20936;-62
2021/11/27 06:13:16;;;;;;;1.83;1.53;;;5.30;99.90;;;;;;4998174;28;20533;-62
2021/11/27 06:15:41;;;;;;;1.43;1.33;;;5.30;99.90;;;;;;4997396;28;20181;-62
2021/11/27 06:18:07;;;;;;;1.43;1.33;;;5.20;99.90;;;;;;4997433;28;20527;-62
2021/11/27 06:20:33;;;;;;;1.70;1.50;;;5.20;99.90;;;;;;4996313;28;20215;-62
2021/11/27 06:22:59;;;;;;;2.30;1.70;;;5.30;99.90;;;;;;4997246;28;20404;-62
2021/11/27 06:25:25;;;;;;;1.70;1.40;;;5.40;99.90;;;;;;4997138;28;20172;-62
2021/11/27 06:27:52;;;;;;;1.60;1.50;;;5.40;99.90;;;;;;4995932;28;20173;-62
2021/11/27 06:30:18;;;;;;;1.87;1.40;;;5.30;99.90;;;;;;4996975;28;20518;-62
2021/11/27 06:32:43;;;;;;;1.83;1.43;;;5.30;99.90;;;;;;4996900;28;20436;-62
2021/11/27 06:35:09;;;;;;;1.50;1.30;;;5.50;99.90;;;;;;4996882;28;20176;-62
2021/11/27 06:37:34;;;;;;;1.30;1.20;;;5.50;99.90;;;;;;4996355;28;20181;-62
2021/11/27 06:40:00;;;;;;;2.30;1.87;;;5.60;99.90;;;;;;4996986;28;20276;-62
2021/11/27 06:42:27;;;;;;;1.50;1.33;;;5.60;99.90;;;;;;4996808;28;20657;-62
2021/11/27 06:44:52;;;;;;;1.57;1.47;;;5.60;99.90;;;;;;4996736;28;20161;-62
2021/11/27 06:47:20;;;;;;;2.47;1.57;;;5.60;99.90;;;;;;4996728;28;20410;-63
2021/11/27 06:49:47;;;;;;;2.33;1.60;;;5.30;99.90;;;;;;4996514;28;20176;-62
2021/11/27 06:52:14;;;;;;;2.50;2.13;;;5.10;99.90;;;;;;4996439;28;20415;-62
2021/11/27 06:54:40;;;;;;;1.73;1.63;;;5.20;99.90;;;;;;4996532;28;20808;-62
2021/11/27 06:57:07;;;;;;;2.10;1.67;;;5.20;99.90;;;;;;4996428;28;20454;-62
2021/11/27 06:59:33;;;;;;;2.80;1.80;;;5.20;99.90;;;;;;4996212;28;20470;-62
2021/11/27 07:01:59;;;;;;;1.57;1.30;;;5.30;99.90;;;;;;4996103;28;20447;-60
2021/11/27 07:04:24;;;;;;;1.70;1.60;;;5.40;99.90;;;;;;4996244;28;20412;-62
2021/11/27 07:06:50;;;;;;;1.73;1.43;;;5.50;99.90;;;;;;4995723;28;20215;-63
2021/11/27 07:09:16;;;;;;;2.20;1.40;;;5.50;99.90;;;;;;4996189;28;20169;-63
2021/11/27 07:11:42;;;;;;;1.50;1.40;;;5.50;99.90;;;;;;4996323;28;20204;-62
2021/11/27 07:14:08;;;;;;;1.47;1.37;;;5.50;99.90;;;;;;4996314;28;20685;-62
2021/11/27 07:16:34;;;;;;;1.70;1.60;;;5.40;99.90;;;;;;4987997;28;20504;-62
2021/11/27 07:18:59;;;;;;;1.67;1.57;;;5.40;99.90;;;;;;4976559;28;20180;-62
2021/11/27 07:21:25;;;;;;;1.23;1.13;;;5.40;99.90;;;;;;4991028;28;20200;-62
2021/11/27 07:23:51;;;;;;;1.37;1.27;;;5.30;99.90;;;;;;4995663;28;20172;-62
2021/11/27 07:26:18;;;;;;;1.93;1.47;;;5.20;99.90;;;;;;4996220;28;20214;-62
2021/11/27 07:28:44;;;;;;;1.80;1.70;;;5.30;99.90;;;;;;4995973;28;20408;-61
2021/11/27 07:31:10;;;;;;;3.30;1.70;;;5.30;99.90;;;;;;4995581;28;20828;-62
2021/11/27 07:33:35;;;;;;;1.80;1.60;;;5.30;99.90;;;;;;4995745;28;20411;-61
2021/11/27 07:36:01;;;;;;;2.33;1.73;;;5.20;99.90;;;;;;4995621;28;20176;-62
2021/11/27 07:38:27;;;;;;;1.70;1.60;;;5.20;99.90;;;;;;4995501;28;20244;-62
2021/11/27 07:40:52;;;;;;;2.87;1.90;;;5.10;99.90;;;;;;4995463;28;20201;-63
2021/11/27 07:43:18;;;;;;;1.43;1.33;;;5.20;99.90;;;;;;4996166;28;20633;-62
2021/11/27 07:45:43;;;;;;;5.70;1.80;;;5.20;99.90;;;;;;4995863;28;20173;-61
2021/11/27 07:48:09;;;;;;;1.83;1.63;;;5.20;99.90;;;;;;4995852;28;20169;-63
2021/11/27 07:50:35;;;;;;;2.10;1.80;;;5.20;99.90;;;;;;4967941;23;1129376;-59
2021/11/27 07:53:01;;;;;;;1.73;1.63;;;5.10;99.90;;;;;;5005613;28;20537;-63
2021/11/27 07:55:28;;;;;;;1.80;1.70;;;5.10;99.90;;;;;;5016578;28;20415;-57
2021/11/27 07:57:55;;;;;;;1.67;1.50;;;5.10;99.90;;;;;;5016286;28;20632;-62
2021/11/27 08:00:21;;;;;;;1.67;1.30;;;5.00;99.90;;;;;;5015952;28;20451;-59
2021/11/27 08:02:47;;;;;;;1.50;1.30;;;5.10;99.90;;;;;;5016432;28;20914;-61
2021/11/27 08:05:12;;;;;;;1.80;1.60;;;5.20;99.90;;;;;;5015716;28;20407;-57
2021/11/27 08:07:38;;;;;;;1.67;1.57;;;5.30;99.90;;;;;;5016127;28;20618;-60
2021/11/27 08:10:06;;;;;;;2.17;1.33;;;5.40;99.90;;;;;;5015796;28;20194;-63
2021/11/27 08:12:31;;;;;;;1.67;1.53;;;5.40;99.90;;;;;;5015487;28;20241;-61
2021/11/27 08:14:57;;;;;;;1.90;1.77;;;5.30;99.90;;;;;;5016066;28;20887;-55
2021/11/27 08:17:23;;;;;;;2.90;1.87;;;5.30;99.90;;;;;;5016164;28;20180;-58
2021/11/27 08:19:49;;;;;;;2.37;1.80;;;5.20;99.90;;;;;;5016367;28;20183;-61
2021/11/27 08:22:15;;;;;;;1.50;1.30;;;5.40;99.90;;;;;;4998454;28;20188;-61
2021/11/27 08:24:41;;;;;;;2.03;1.53;;;5.40;99.90;;;;;;4996450;28;20410;-55
2021/11/27 08:27:06;;;;;;;1.87;1.60;;;5.50;99.90;;;;;;4996850;28;20192;-54
2021/11/27 08:29:32;;;;;;;1.80;1.70;;;5.60;99.90;;;;;;4996637;28;20602;-53
2021/11/27 08:31:58;;;;;;;2.33;1.90;;;5.80;99.90;;;;;;4996821;28;20201;-53
2021/11/27 08:34:24;;;;;;;2.83;1.80;;;6.00;99.90;;;;;;4997176;28;20168;-55
2021/11/27 08:36:50;;;;;;;1.70;1.60;;;6.00;99.90;;;;;;4996456;28;20187;-55
2021/11/27 08:39:15;;;;;;;1.90;1.70;;;6.10;99.90;;;;;;4996507;28;20483;-54
2021/11/27 08:41:43;;;;;;;2.03;1.80;;;6.10;99.90;;;;;;4996503;28;20580;-56
2021/11/27 08:44:09;;;;;;;1.17;1.07;;;5.90;99.90;;;;;;4996639;28;20165;-56
2021/11/27 08:46:34;;;;;;;3.57;1.27;;;6.00;99.90;;;;;;4996215;28;20463;-57
2021/11/27 08:49:00;;;;;;;2.03;1.60;;;6.30;99.90;;;;;;4996757;28;20396;-57
2021/11/27 08:51:27;;;;;;;1.60;1.47;;;6.40;99.90;;;;;;4996722;28;20212;-55
2021/11/27 08:53:52;;;;;;;1.43;1.30;;;6.60;99.90;;;;;;4996937;28;20417;-55
2021/11/27 08:56:19;;;;;;;2.07;1.33;;;6.60;99.90;;;;;;4996789;28;20410;-52
2021/11/27 08:58:45;;;;;;;1.37;1.27;;;6.80;99.90;;;;;;4996745;28;20427;-57
2021/11/27 09:01:12;;;;;;;1.17;1.07;;;7.10;99.90;;;;;;4996621;28;20457;-56
2021/11/27 09:03:39;;;;;;;1.93;1.20;;;7.30;99.90;;;;;;4994954;28;20193;-56
2021/11/27 09:06:06;;;;;;;1.40;1.10;;;7.20;99.90;;;;;;4995801;28;20398;-56
2021/11/27 09:08:32;;;;;;;1.70;1.20;;;7.20;99.90;;;;;;4996028;28;20408;-56
2021/11/27 09:10:58;;;;;;;1.40;1.00;;;7.40;99.90;;;;;;4995101;28;20438;-55
2021/11/27 09:13:24;;;;;;;2.80;1.60;;;7.40;99.90;;;;;;4995817;28;20495;-54
2021/11/27 09:15:50;;;;;;;1.60;1.50;;;7.30;99.90;;;;;;4996097;28;20496;-57
2021/11/27 09:18:16;;;;;;;1.40;1.10;;;7.40;99.90;;;;;;4982129;28;20590;-56
2021/11/27 09:20:41;;;;;;;1.53;1.07;;;7.40;99.90;;;;;;4979850;28;20204;-57
2021/11/27 09:23:07;;;;;;;3.30;1.50;;;7.30;99.90;;;;;;4996033;28;20474;-53
2021/11/27 09:25:33;;;;;;;1.23;1.07;;;7.30;99.90;;;;;;4994766;28;20243;-57
2021/11/27 09:27:59;;;;;;;4.17;2.00;;;7.50;99.90;;;;;;4996022;28;20430;-55
2021/11/27 09:30:27;;;;;;;3.60;1.43;;;7.70;99.90;;;;;;4996007;28;20432;-61
2021/11/27 09:32:54;;;;;;;3.67;1.23;;;7.90;99.90;;;;;;4995968;28;20213;-60
2021/11/27 09:35:20;;;;;;;2.10;1.70;;;7.80;99.90;;;;;;4995851;28;20464;-56
2021/11/27 09:37:46;;;;;;;2.10;1.20;;;7.50;99.90;;;;;;4996165;28;20410;-60
2021/11/27 09:40:12;;;;;;;2.30;1.50;;;7.70;99.90;;;;;;4995052;28;20456;-61
2021/11/27 09:42:38;;;;;;;1.93;1.43;;;7.50;99.90;;;;;;4996347;28;20635;-59
2021/11/27 09:45:07;;;;;;;2.20;1.30;;;7.70;99.90;;;;;;4995767;28;20406;-60
2021/11/27 09:47:34;;;;;;;1.13;1.03;;;7.60;99.90;;;;;;4995869;28;20409;-60
2021/11/27 09:50:05;;;;;;;3.40;1.33;;;7.60;99.90;;;;;;4994769;28;20409;-61
2021/11/27 09:52:31;;;;;;;1.40;1.07;;;7.20;99.90;;;;;;4994954;28;20430;-60
2021/11/27 09:54:57;;;;;;;1.50;1.10;;;7.10;99.90;;;;;;4994528;28;20829;-61
2021/11/27 09:57:25;;;;;;;3.20;1.47;;;7.20;99.90;;;;;;4995792;28;20169;-60
2021/11/27 09:59:50;;;;;;;1.63;1.17;;;7.20;99.90;;;;;;4994771;28;20440;-61
2021/11/27 10:02:17;;;;;;;1.07;0.90;;;7.20;99.90;;;;;;4996242;28;20474;-60
2021/11/27 10:04:50;;;;;;;1.57;1.20;;;7.30;99.90;;;;;;4996381;28;20171;-55
2021/11/27 10:07:18;;;;;;;1.70;1.30;;;7.40;99.90;;;;;;4995780;28;20413;-59
2021/11/27 10:09:49;;;;;;;1.80;1.03;;;7.60;99.90;;;;;;4996734;28;20434;-59
2021/11/27 10:12:15;;;;;;;2.73;1.30;;;7.40;99.90;;;;;;4995476;28;20433;-61
2021/11/27 10:14:41;;;;;;;1.53;1.13;;;7.30;99.90;;;;;;4996483;28;20415;-55
2021/11/27 10:17:13;;;;;;;2.00;1.00;;;7.30;99.90;;;;;;4996146;28;20461;-54
2021/11/27 10:19:41;;;;;;;2.17;1.03;;;7.20;99.90;;;;;;4996076;28;20760;-54
2021/11/27 10:22:09;;;;;;;2.83;1.43;;;7.40;99.90;;;;;;4993841;28;20551;-54
2021/11/27 10:24:36;;;;;;;1.20;1.10;;;7.70;99.90;;;;;;4995771;28;20938;-58
2021/11/27 10:27:04;;;;;;;1.47;1.20;;;8.10;99.90;;;;;;4996763;28;20433;-59
2021/11/27 10:29:35;;;;;;;1.10;0.93;;;8.10;99.90;;;;;;4994995;28;20498;-61
2021/11/27 10:32:16;;;;;;;2.87;1.43;;;8.10;99.90;;;;;;4994957;28;20435;-62
2021/11/27 10:34:55;;;;;;;1.60;1.27;;;8.20;99.90;;;;;;4998486;28;20405;-55
2021/11/27 10:37:29;;;;;;;2.73;1.00;;;8.20;99.90;;;;;;4998426;28;20402;-58
2021/11/27 10:40:02;;;;;;;1.27;1.00;;;8.30;99.90;;;;;;4999275;28;20916;-58
2021/11/27 10:42:28;;;;;;;1.60;1.20;;;8.30;99.90;;;;;;4999968;28;20689;-63
2021/11/27 10:44:54;;;;;;;1.53;1.43;;;8.30;99.90;;;;;;5002332;28;20989;-54
2021/11/27 10:47:21;;;;;;;2.00;1.17;;;8.30;99.90;;;;;;5000037;28;20411;-63
2021/11/27 10:49:48;;;;;;;2.17;0.93;;;8.30;99.90;;;;;;5000513;28;20406;-62
2021/11/27 10:52:20;;;;;;;1.73;1.33;;;8.40;99.90;;;;;;4999783;28;20453;-62
2021/11/27 10:54:52;;;;;;;4.90;1.80;;;7.90;99.90;;;;;;4999975;28;20505;-62
2021/11/27 10:57:39;;;;;;;1.77;1.20;;;7.60;99.90;;;;;;5000090;28;20953;-63
2021/11/27 11:00:23;;;;;;;1.67;1.20;;;7.40;99.90;;;;;;4998487;28;20417;-63
2021/11/27 11:02:49;;;;;;;1.90;1.37;;;7.70;99.90;;;;;;4998045;28;20405;-63
2021/11/27 11:05:14;;;;;;;1.93;1.50;;;7.80;99.90;;;;;;4997683;28;20765;-57
2021/11/27 11:07:42;;;;;;;2.03;1.60;;;7.90;99.90;;;;;;4997495;28;20211;-57
2021/11/27 11:10:37;;;;;;;2.47;1.37;;;8.00;99.90;;;;;;4997718;28;20226;-62
2021/11/27 11:13:09;;;;;;;2.10;1.33;;;7.90;99.90;;;;;;4996533;28;20547;-63
2021/11/27 11:15:46;;;;;;;2.03;1.23;;;7.90;99.90;;;;;;4997996;28;20409;-63
2021/11/27 11:18:21;;;;;;;1.50;1.33;;;7.80;99.90;;;;;;4997618;28;20830;-63
2021/11/27 11:20:48;;;;;;;2.47;1.50;;;7.50;99.90;;;;;;4986798;28;20456;-62
2021/11/27 11:23:20;;;;;;;2.30;1.20;;;7.60;99.90;;;;;;4997863;28;20434;-63
2021/11/27 11:26:00;;;;;;;2.20;1.40;;;7.80;99.90;;;;;;4997395;28;20486;-57
2021/11/27 11:28:30;;;;;;;1.43;1.30;;;7.90;99.90;;;;;;4996771;28;20400;-62
2021/11/27 11:31:04;;;;;;;2.37;1.60;;;7.60;99.90;;;;;;4997120;28;20509;-62
2021/11/27 11:33:31;;;;;;;2.67;1.77;;;7.60;99.90;;;;;;4997319;28;20382;-63
2021/11/27 11:35:57;;;;;;;1.70;1.60;;;7.70;99.90;;;;;;4996541;28;20441;-63
2021/11/27 11:38:23;;;;;;;3.47;1.53;;;7.80;99.90;;;;;;4996233;28;20412;-63
2021/11/27 11:40:49;;;;;;;1.80;1.27;;;7.90;99.90;;;;;;4996685;28;20203;-62
2021/11/27 11:43:15;;;;;;;2.83;1.30;;;7.70;99.90;;;;;;4996106;28;20425;-63
2021/11/27 11:45:41;;;;;;;1.97;1.40;;;7.60;99.90;;;;;;4994896;28;20412;-63
2021/11/27 11:48:08;;;;;;;3.83;1.60;;;7.70;99.90;;;;;;4996716;28;20533;-61
2021/11/27 11:50:42;;;;;;;2.67;1.70;;;7.80;99.90;;;;;;4996534;28;20497;-61
2021/11/27 11:53:28;;;;;;;4.13;1.60;;;8.00;99.90;;;;;;4996609;28;20395;-63
2021/11/27 11:56:03;;;;;;;2.40;1.77;;;8.00;99.90;;;;;;4996918;28;20399;-57
2021/11/27 11:58:34;;;;;;;4.67;1.90;;;7.90;99.90;;;;;;4996670;28;20908;-58
2021/11/27 12:01:03;;;;;;;3.20;1.73;;;8.20;99.90;;;;;;4997335;28;20459;-62
2021/11/27 12:03:39;;;;;;;3.90;2.00;;;8.30;99.90;;;;;;4996548;28;20461;-62
2021/11/27 12:06:14;;;;;;;3.53;2.00;;;8.40;99.90;;;;;;4996682;28;20383;-62
2021/11/27 12:08:48;;;;;;;2.87;1.60;;;8.40;99.90;;;;;;4997064;28;20414;-62
2021/11/27 12:11:45;;;;;;;1.93;1.70;;;8.00;99.90;;;;;;4996088;28;20436;-62
2021/11/27 12:14:23;;;;;;;1.90;1.70;;;7.80;99.90;;;;;;4996549;28;20422;-62
2021/11/27 12:17:06;;;;;;;1.93;1.43;;;7.90;99.90;;;;;;4996882;28;20416;-59
2021/11/27 12:19:37;;;;;;;2.53;2.00;;;7.90;99.90;;;;;;4996046;28;20496;-62
2021/11/27 12:22:20;;;;;;;1.90;1.70;;;8.00;99.90;;;;;;4995517;28;20466;-61
2021/11/27 12:25:24;;;;;;;1.93;1.50;;;8.10;99.90;;;;;;4995747;28;20927;-62
2021/11/27 12:28:02;;;;;;;1.70;1.57;;;8.20;99.90;;;;;;4995655;28;20415;-61
2021/11/27 12:30:56;;;;;;;1.93;1.70;;;8.40;99.90;;;;;;4995682;28;20794;-61
2021/11/27 12:33:43;;;;;;;2.30;1.33;;;8.30;99.90;;;;;;4995469;28;20422;-61
2021/11/27 12:36:29;;;;;;;1.90;1.57;;;8.40;99.90;;;;;;4995464;28;20426;-57
2021/11/27 12:39:10;;;;;;;2.00;1.47;;;8.50;99.90;;;;;;4994266;28;20413;-55
2021/11/27 12:41:43;;;;;;;1.53;1.20;;;8.50;99.90;;;;;;4995519;28;20457;-61
2021/11/27 12:44:17;;;;;;;1.50;1.40;;;8.30;99.90;;;;;;4995501;28;20426;-61
2021/11/27 12:46:45;;;;;;;2.40;1.47;;;8.20;99.90;;;;;;4995692;28;20400;-62
2021/11/27 12:49:31;;;;;;;2.17;1.77;;;8.40;99.90;;;;;;4995464;28;20434;-60
2021/11/27 12:52:15;;;;;;;2.50;1.40;;;8.60;99.90;;;;;;4994713;28;20467;-63
2021/11/27 12:54:48;;;;;;;1.50;1.40;;;8.70;99.90;;;;;;4995690;28;20443;-60
2021/11/27 12:57:18;;;;;;;1.27;1.10;;;8.30;99.90;;;;;;4995685;28;20392;-61
2021/11/27 12:59:45;;;;;;;1.70;1.30;;;8.40;99.90;;;;;;4995832;28;20946;-61
2021/11/27 13:02:20;;;;;;;1.20;1.03;;;8.40;99.90;;;;;;4995479;28;20459;-61